Nearby METAR Reports

 

KRDU - Raleigh/Durham, North Carolina, USA
Distance from station: NNW 20mi, 33km
Updated: Wed, 01-Apr-2020 5:04am EDT
Light rain, Overcast
Light rain, Overcast
 Wind from N
Wind: N 9 mph , 15 km/h, Gust: 18 mph , 30 km/h
Temperature: 45°F , 7°C
Wind Chill: 40°F , 4°C
Dew Point: 41°F , 5°C
Humidity: 87%
Barometer: 29.68 inHg , 1005.1 hPa
Summary: Light rain
Clouds: Overcast
Visibility: 10 miles , 16 km
Cloud details: Few Clouds 700 ft
Mostly cloudy 1400 ft
Overcast 2400 ft
2020/04/01 09:04 KRDU 010904Z 01008G16KT 10SM -RA FEW007 BKN014 OVC024 07/05 A2968 RMK AO2 P0000 T00670050
KJNX - Smithfield Johns, North Carolina, USA
Distance from station: ESE 17mi, 28km
Updated: Wed, 01-Apr-2020 5:15am EDT
Light drizzle, Overcast
Light drizzle, Overcast
 Wind from N
Wind: N 7 mph , 11 km/h
Temperature: 45°F , 7°C
Wind Chill: 41°F , 5°C
Dew Point: 45°F , 7°C
Humidity: 100%
Barometer: 29.66 inHg , 1004.4 hPa
Summary: Light Drizzle
Clouds: Overcast
Visibility: 10 miles , 16 km
Cloud details: Mostly cloudy 1200 ft
Overcast 1700 ft
2020/04/01 09:15 KJNX 010915Z AUTO 35006KT 10SM -DZ BKN012 OVC017 07/07 A2966 RMK AO2
 
KLHZ - Louisburg/Frankl, North Carolina, USA
Distance from station: NE 33mi, 54km
Updated: Wed, 01-Apr-2020 5:15am EDT
Overcast
Overcast
 Wind from NNW
Wind: NNW 13 mph , 20 km/h, Gust: 20 mph , 31 km/h
Temperature: 43°F , 6°C
Wind Chill: 36°F , 2°C
Dew Point: 41°F , 5°C
Humidity: 93%
Barometer: 29.69 inHg , 1005.4 hPa
Clouds: Overcast
Visibility: 10 miles , 16 km
Cloud details: Partly cloudy 1100 ft
Mostly cloudy 1700 ft
Overcast 2300 ft
2020/04/01 09:15 KLHZ 010915Z AUTO 34011G17KT 10SM SCT011 BKN017 OVC023 06/05 A2969 RMK AO2
KPOB - Pope Afb, North Carolina, USA
Distance from station: SSW 37mi, 59km
Updated: Wed, 01-Apr-2020 4:56am EDT
Overcast
Overcast
 Wind from N
Wind: N 12 mph , 19 km/h
Temperature: 48°F , 9°C
Wind Chill: 43°F , 6°C
Dew Point: 45°F , 7°C
Humidity: 87%
Barometer: 29.66 inHg , 1004.4 hPa
Clouds: Overcast
Visibility: 10 miles , 16 km
Cloud details: Overcast 1600 ft
2020/04/01 08:56 KPOB 010856Z AUTO 36010KT 10SM OVC016 09/07 A2966 RMK AO2 DZB0756E01RAB01E21DZB21E33 OVC V BKN SLP047 P0000 60003 T00850065 51009 $
 
KSCR - Siler City, North Carolina, USA
Distance from station: W 47mi, 75km
Updated: Wed, 01-Apr-2020 5:15am EDT
Overcast
Overcast
 Wind from N
Wind: N 9 mph , 15 km/h, Gust: 17 mph , 28 km/h
Temperature: 45°F , 7°C
Wind Chill: 40°F , 4°C
Dew Point: 41°F , 5°C
Humidity: 87%
Barometer: 29.69 inHg , 1005.4 hPa
Clouds: Overcast
Visibility: 10 miles , 16 km
Cloud details: Overcast 1400 ft
2020/04/01 09:15 KSCR 010915Z AUTO 36008G15KT 320V060 10SM OVC014 07/05 A2969 RMK AO2 T00700052
KTDF - Roxboro Person, North Carolina, USA
Distance from station: NNW 49mi, 79km
Updated: Sun, 29-Mar-2020 3:15pm EDT
NOT Current
Mostly cloudy
Mostly cloudy
 Wind from SW
Wind: SW 17 mph , 28 km/h, Gust: 31 mph , 50 km/h
Temperature: 82°F , 28°C
Heat Index: 82°F , 28°C
Dew Point: 61°F , 16°C
Humidity: 48%
Barometer: 29.88 inHg , 1011.9 hPa
Clouds: Mostly cloudy
Visibility: 10 miles , 16 km
Cloud details: Mostly cloudy 6000 ft
2020/03/29 19:15 KTDF 291915Z AUTO 22015G27KT 10SM BKN060 28/16 A2988 RMK AO2
 
KSOP - Southern Pines, North Carolina, USA
Distance from station: SW 50mi, 80km
Updated: Wed, 01-Apr-2020 5:08am EDT
Overcast
Overcast
 Wind from varies
Wind: varies 5 mph , 7 km/h
Temperature: 46°F , 8°C
Wind Chill: 44°F , 7°C
Dew Point: 43°F , 6°C
Humidity: 87%
Barometer: 29.68 inHg , 1005.1 hPa
Clouds: Overcast
Visibility: 10 miles , 16 km
Cloud details: Overcast 1600 ft
2020/04/01 09:08 KSOP 010908Z AUTO VRB04KT 10SM OVC016 08/06 A2968 RMK AO2
KHNZ - Henderson/Oxford, North Carolina, USA
Distance from station: N 52mi, 84km
Updated: Wed, 01-Apr-2020 5:15am EDT
Light drizzle, Overcast
Light drizzle, Overcast
 Wind from N
Wind: N 9 mph , 15 km/h, Gust: 20 mph , 31 km/h
Temperature: 39°F , 4°C
Wind Chill: 33°F , 1°C
Dew Point: 39°F , 4°C
Humidity: 100%
Barometer: 29.69 inHg , 1005.4 hPa
Summary: Light Drizzle
Clouds: Overcast
Visibility: 10 miles , 16 km
Cloud details: Partly cloudy 500 ft
Mostly cloudy 1300 ft
Overcast 2000 ft
2020/04/01 09:15 KHNZ 010915Z AUTO 36008G17KT 10SM -DZ SCT005 BKN013 OVC020 04/04 A2969 RMK AO2 T00430037
 
KBUY - Burlington, North Carolina, USA
Distance from station: NW 54mi, 86km
Updated: Wed, 01-Apr-2020 4:54am EDT
Overcast
Overcast
 Wind from N
Wind: N 13 mph , 20 km/h, Gust: 26 mph , 43 km/h
Temperature: 46°F , 8°C
Wind Chill: 40°F , 4°C
Dew Point: 39°F , 4°C
Humidity: 76%
Barometer: 29.71 inHg , 1006.1 hPa
Clouds: Overcast
Visibility: 10 miles , 16 km
Cloud details: Mostly cloudy 1600 ft
Mostly cloudy 2200 ft
Overcast 3300 ft
2020/04/01 08:54 KBUY 010854Z AUTO 35011G23KT 10SM BKN016 BKN022 OVC033 08/04 A2971 RMK AO2 RAE34 SLP059 P0001 60001 T00780044 53009
KTNB - Boone Watauga Ct, North Carolina, USA
Distance from station: SE 2mi, 3km
Updated: Wed, 01-Apr-2020 5:15am EDT

 Wind from WNW
Wind: WNW 9 mph , 15 km/h
Temperature: 36°F , 2°C
Wind Chill: 29°F , -2°C
Dew Point: 34°F , 1°C
Humidity: 93%
Barometer: 29.72 inHg , 1006.4 hPa
Visibility: 10 miles , 16 km
2020/04/01 09:15 KTNB 010915Z AUTO 30008KT 10SM 02/01 A2972 RMK AO2 T00210011
 
KGEV - Jefferson, North Carolina, USA
Distance from station: NE 21mi, 33km
Updated: Wed, 01-Apr-2020 5:15am EDT
Drizzle, Overcast
Drizzle, Overcast
 Wind from NW
Wind: NW 9 mph , 15 km/h, Gust: 18 mph , 30 km/h
Temperature: 34°F , 1°C
Wind Chill: 27°F , -3°C
Dew Point: 34°F , 1°C
Humidity: 100%
Barometer: 29.71 inHg , 1006.1 hPa
Summary: Drizzle
Clouds: Overcast
Visibility: 5 miles , 8 km
Cloud details: Overcast 900 ft
2020/04/01 09:15 KGEV 010915Z AUTO 31008G16KT 5SM DZ OVC009 01/01 A2971 RMK AO2 T00130010
KFQD - Rutherfordton, North Carolina, USA
Distance from station: SSW 57mi, 92km
Updated: Wed, 01-Apr-2020 5:15am EDT
Clear
Clear
 Wind from NNE
Wind: NNE 5 mph , 7 km/h
Temperature: 43°F , 6°C
Wind Chill: 40°F , 4°C
Dew Point: 34°F , 1°C
Humidity: 71%
Barometer: 29.77 inHg , 1008.1 hPa
Clouds: Clear
Visibility: 10 miles , 16 km
2020/04/01 09:15 KFQD 010915Z AUTO 02004KT 10SM CLR 06/01 A2977 RMK AO2
 
KAVL - Asheville, North Carolina, USA
Distance from station: SW 72mi, 117km
Updated: Wed, 01-Apr-2020 4:54am EDT
Light rain, Overcast
Light rain, Overcast
 Wind from N
Wind: N 13 mph , 20 km/h, Gust: 24 mph , 39 km/h
Temperature: 39°F , 4°C
Wind Chill: 31°F , -1°C
Dew Point: 36°F , 2°C
Humidity: 87%
Barometer: 29.76 inHg , 1007.8 hPa
Summary: Light rain
Clouds: Overcast
Visibility: 7 miles , 11 km
Cloud details: Partly cloudy 900 ft
Mostly cloudy 1500 ft
Overcast 2900 ft
2020/04/01 08:54 KAVL 010854Z AUTO 35011G21KT 7SM -RA SCT009 BKN015 OVC029 04/02 A2976 RMK AO2 SLP072 P0003 60004 T00440022 51005 $